Search for airport 
image banner adimage banner adimage banner ad
image banner ad

KPRO - Perry Muni

Located in Perry, United States

ICAO - PRO, IATA -

Data provided by Airmate  

General information

Coordinates: N41°49'41" W94°9'35"
Elevation is 1013 feet MSL.
Magnetic variation is 02° East
View others Airports in Iowa

Operational data

Special qualification required
Current time UTC:
Current local time:
Weather
METAR: KPRO 151035Z AUTO 32003KT 10SM CLR 13/10 A3011 RMK AO2 T01290100
View NOTAMs / SUP AIP / TFR affecting this airport [VIEW]
Communications frequencies: [VIEW]

Runways:

RWY identifierQFULength (ft)Width (ft)SurfaceLDA (ft)
0450°2322237GRASS
22231°2322237GRASS
14141°400175CONC
32321°400175CONC

Airport contact information

Address: Perry United States

Satellite view of KPRO